Raccoon Key, Florida
Current Conditions -  °F | °C
As of 8:53 AM on Friday 31 Oct 2014 (Local Time) from KNQX Reporting Station
Scattered Clouds Scattered Clouds  
Wind Chill: 79°   Ceiling: Unl
Heat Index: 82°   Visibility: 10mi
Dew Point: 69°   Wind: 7mph
Humidity: 72%   Direction: 250°WSW
Pressure: 29.89"   Gusts: NA
Location:  24.5796°N, 81.6849°W
Report Text: KNQX 311253Z 25006KT 10SM SCT030 26/21 A2989 RMK AO2 SLP119 T02610206 $
Loading
Personal Weather Stations






























Interactive Weather Map
Tropical Storm Tracking
New forecast layout! Learn more

10-Day Weather Forecast

Advertisements
Track Severe Weather on mobile